Steel City, Illinois
Current Conditions -  °F | °C
As of 1:51 PM on Friday 21 Nov 2014 (Local Time) from KMWA Reporting Station
Broken Clouds Broken Clouds  
Wind Chill: 41°   Ceiling: 8000
Heat Index: 46°   Visibility: 20mi
Dew Point: 21°   Wind: 12mph
Humidity: 37%   Direction: 120°ESE
Pressure: 30.35"   Gusts: NA
Location:  38.0175°N, 88.9351°W
Report Text: KMWA 211951Z 12010KT 20SM SCT039 BKN080 08/M06 A3035
Loading
Personal Weather Stations






























Interactive Weather Map New forecast layout! Learn more

10-Day Weather Forecast

Advertisements
Track Severe Weather on mobile